.
WxDataArchive / Data Records for 2012-11-30
2012-11-29 November 2012 2012-12-01

Data Records for Friday, 30 November 2012

Time	Temp	Chill	HIndex	Humid	Dewpt	 Wind 	HiWind	WindDir	Rain 	Barom 
-----	----	-----	------	-----	-----	------	------	-------	-----	----- 
00:00	41.6	41.6	41.6	59	28.3	0	2	68	0.00	30.189 
00:05	41.6	41.6	41.6	58	27.9	0	1	68	0.00	30.189 
00:10	41.8	41.8	41.8	59	28.5	0	1	68	0.00	30.189 
00:15	41.6	41.6	41.6	60	28.8	0	1	68	0.00	30.183 
00:20	41.5	41.5	41.5	60	28.7	0	1	68	0.00	30.183 
00:25	41.5	41.5	41.5	60	28.7	0	1	68	0.00	30.183 
00:30	41.3	41.3	41.3	60	28.5	0	2	68	0.00	30.180 
00:35	41.3	41.3	41.3	60	28.5	0	3	68	0.00	30.180 
00:40	41.1	41.1	41.1	60	28.3	0	1	68	0.00	30.180 
00:45	40.9	40.9	40.9	61	28.5	0	1	68	0.00	30.177 
00:50	40.5	40.5	40.5	61	28.1	0	0	---	0.00	30.177 
00:55	40.1	40.1	40.1	62	28.1	0	0	---	0.00	30.177 
01:00	39.6	39.6	39.6	63	28.1	0	0	---	0.00	30.174 
01:05	39.1	39.1	39.1	64	28.0	0	0	---	0.00	30.174 
01:10	38.5	38.5	38.5	65	27.8	0	0	---	0.00	30.174 
01:15	38.0	38.0	38.0	65	27.3	0	0	---	0.00	30.175 
01:20	37.6	37.6	37.6	66	27.3	0	0	---	0.00	30.175 
01:25	37.2	37.2	37.2	67	27.3	0	0	---	0.00	30.175 
01:30	36.8	36.8	36.8	69	27.6	0	1	68	0.00	30.175 
01:35	36.5	36.5	36.5	69	27.3	0	0	---	0.00	30.175 
01:40	36.2	36.2	36.2	70	27.4	0	0	---	0.00	30.175 
01:45	35.9	35.9	35.9	71	27.4	0	0	---	0.00	30.173 
01:50	35.8	35.8	35.8	72	27.7	0	0	---	0.00	30.173 
01:55	35.6	35.6	35.6	72	27.5	0	0	---	0.00	30.173 
02:00	35.3	35.3	35.3	73	27.5	0	0	---	0.00	30.172 
02:05	35.2	35.2	35.2	73	27.4	0	0	---	0.00	30.172 
02:10	34.9	34.9	34.9	73	27.1	0	0	---	0.00	30.172 
02:15	34.6	34.6	34.6	73	26.9	0	0	---	0.00	30.174 
02:20	34.4	34.4	34.4	74	27.0	0	0	---	0.00	30.174 
02:25	34.1	34.1	34.1	74	26.7	0	0	---	0.00	30.174 
02:30	34.0	34.0	34.0	76	27.2	0	0	---	0.00	30.173 
02:35	33.8	33.8	33.8	76	27.1	0	0	---	0.00	30.173 
02:40	33.8	33.8	33.8	77	27.4	0	0	---	0.00	30.173 
02:45	33.7	33.7	33.7	77	27.3	0	0	---	0.00	30.175 
02:50	33.5	33.5	33.5	77	27.1	0	0	---	0.00	30.175 
02:55	33.4	33.4	33.4	78	27.3	0	0	---	0.00	30.175 
03:00	33.4	33.4	33.4	78	27.3	0	0	---	0.00	30.181 
03:05	33.2	33.2	33.2	78	27.1	0	0	---	0.00	30.181 
03:10	33.1	33.1	33.1	79	27.3	0	0	---	0.00	30.181 
03:15	33.1	33.1	33.1	79	27.3	0	0	---	0.00	30.176 
03:20	32.9	32.9	32.9	79	27.1	0	0	---	0.00	30.176 
03:25	32.8	32.8	32.8	79	27.0	0	0	---	0.00	30.176 
03:30	32.7	32.7	32.7	80	27.2	0	0	---	0.00	30.177 
03:35	32.7	32.7	32.7	80	27.2	0	0	---	0.00	30.177 
03:40	32.5	32.5	32.5	80	27.0	0	0	---	0.00	30.177 
03:45	32.7	32.7	32.7	81	27.5	0	0	---	0.00	30.171 
03:50	32.8	32.8	32.8	81	27.6	0	0	---	0.00	30.171 
03:55	33.1	33.1	33.1	81	27.9	0	0	---	0.00	30.171 
04:00	33.2	33.2	33.2	81	28.0	0	0	---	0.00	30.169 
04:05	33.4	33.4	33.4	81	28.2	0	0	---	0.00	30.169 
04:10	33.5	33.5	33.5	81	28.3	0	0	---	0.00	30.169 
04:15	33.5	33.5	33.5	80	28.0	0	0	---	0.00	30.166 
04:20	33.5	33.5	33.5	79	27.7	0	0	---	0.00	30.166 
04:25	33.5	33.5	33.5	79	27.7	0	0	---	0.00	30.166 
04:30	33.5	33.5	33.5	79	27.7	0	0	---	0.00	30.163 
04:35	33.4	33.4	33.4	79	27.6	0	0	---	0.00	30.163 
04:40	33.2	33.2	33.2	79	27.4	0	0	---	0.00	30.163 
04:45	33.1	33.1	33.1	79	27.3	0	0	---	0.00	30.161 
04:50	32.9	32.9	32.9	79	27.1	0	0	---	0.00	30.161 
04:55	32.8	32.8	32.8	79	27.0	0	0	---	0.00	30.161 
05:00	32.7	32.7	32.7	79	26.9	0	0	---	0.00	30.166 
05:05	32.5	32.5	32.5	79	26.7	0	0	---	0.00	30.166 
05:10	32.4	32.4	32.4	80	26.9	0	0	---	0.00	30.166 
05:15	32.2	32.2	32.2	80	26.7	0	0	---	0.00	30.161 
05:20	31.9	31.9	31.9	80	26.4	0	0	---	0.00	30.161 
05:25	31.8	31.8	31.8	80	26.3	0	0	---	0.00	30.161 
05:30	31.5	31.5	31.5	80	26.1	0	0	---	0.00	30.166 
05:35	31.3	31.3	31.3	80	25.9	0	0	---	0.00	30.166 
05:40	31.2	31.2	31.2	81	26.1	0	0	---	0.00	30.166 
05:45	31.0	31.0	31.0	81	25.9	0	0	---	0.00	30.165 
05:50	30.7	30.7	30.7	81	25.6	0	0	---	0.00	30.165 
05:55	30.7	30.7	30.7	82	25.9	0	0	---	0.00	30.165 
06:00	30.6	30.6	30.6	82	25.8	0	0	---	0.00	30.166 
06:05	30.4	30.4	30.4	82	25.6	0	0	---	0.00	30.166 
06:10	30.3	30.3	30.3	83	25.8	0	0	---	0.00	30.166 
06:15	30.1	30.1	30.1	83	25.6	0	0	---	0.00	30.159 
06:20	30.3	30.3	30.3	84	26.1	0	0	---	0.00	30.159 
06:25	30.1	30.1	30.1	83	25.6	0	0	---	0.00	30.159 
06:30	30.0	30.0	30.0	84	25.8	0	0	---	0.00	30.159 
06:35	30.0	30.0	30.0	84	25.8	0	0	---	0.00	30.159 
06:40	30.3	30.3	30.3	84	26.1	0	0	---	0.00	30.159 
06:45	30.7	30.7	30.7	84	26.4	0	0	---	0.00	30.157 
06:50	30.9	30.9	30.9	84	26.6	0	0	---	0.00	30.157 
06:55	30.9	30.9	30.9	84	26.6	0	0	---	0.00	30.157 
07:00	30.9	30.9	30.9	84	26.6	0	0	---	0.00	30.160 
07:05	30.9	30.9	30.9	84	26.6	0	0	---	0.00	30.160 
07:10	30.7	30.7	30.7	84	26.4	0	0	---	0.00	30.160 
07:15	30.7	30.7	30.7	84	26.4	0	0	---	0.00	30.176 
07:20	30.7	30.7	30.7	84	26.4	0	0	---	0.00	30.176 
07:25	30.6	30.6	30.6	84	26.4	0	0	---	0.00	30.176 
07:30	30.6	30.6	30.6	84	26.4	0	0	---	0.00	30.177 
07:35	30.4	30.4	30.4	84	26.2	0	0	---	0.00	30.177 
07:40	30.3	30.3	30.3	84	26.1	0	0	---	0.00	30.177 
07:45	30.0	30.0	30.0	85	26.0	0	0	---	0.00	30.174 
07:50	30.0	30.0	30.0	85	26.0	0	0	---	0.00	30.174 
07:55	30.0	30.0	30.0	85	26.0	0	1	68	0.00	30.174 
08:00	30.1	30.1	30.1	86	26.4	0	1	68	0.00	30.169 
08:05	30.4	30.4	30.4	86	26.7	0	1	68	0.00	30.169 
08:10	30.7	30.7	30.7	85	26.7	0	1	68	0.00	30.169 
08:15	31.0	31.0	31.0	85	27.0	0	1	68	0.00	30.160 
08:20	31.5	31.5	31.5	84	27.2	0	0	---	0.00	30.160 
08:25	31.6	31.6	31.6	84	27.3	0	1	68	0.00	30.160 
08:30	31.9	31.9	31.9	84	27.6	0	0	---	0.00	30.165 
08:35	32.1	32.1	32.1	84	27.8	0	0	---	0.00	30.165 
08:40	32.2	32.2	32.2	83	27.6	0	1	68	0.00	30.165 
08:45	32.5	32.5	32.5	83	27.9	0	0	---	0.00	30.169 
08:50	32.8	32.8	32.8	83	28.2	0	1	68	0.00	30.169 
08:55	33.2	33.2	33.2	82	28.3	0	2	68	0.00	30.169 
09:00	33.7	33.7	33.7	82	28.8	0	1	68	0.00	30.163 
09:05	34.0	34.0	34.0	81	28.8	0	1	68	0.00	30.163 
09:10	34.1	34.1	34.1	81	28.9	0	1	68	0.00	30.163 
09:15	34.4	34.4	34.4	80	28.9	0	1	68	0.00	30.153 
09:20	34.6	34.6	34.6	80	29.1	0	1	68	0.00	30.153 
09:25	34.7	34.7	34.7	80	29.2	0	1	68	0.00	30.153 
09:30	34.9	34.9	34.9	80	29.4	0	0	---	0.00	30.161 
09:35	35.2	35.2	35.2	79	29.4	0	0	---	0.00	30.161 
09:40	35.5	35.5	35.5	79	29.6	0	0	---	0.00	30.161 
09:45	35.8	35.8	35.8	79	29.9	0	0	---	0.00	30.165 
09:50	36.0	36.0	36.0	78	29.8	0	0	---	0.00	30.165 
09:55	36.3	36.3	36.3	77	29.8	0	0	---	0.00	30.165 
10:00	36.6	36.6	36.6	77	30.1	0	1	68	0.00	30.168 
10:05	36.9	36.9	36.9	77	30.4	0	2	68	0.00	30.168 
10:10	37.6	37.6	37.6	76	30.7	0	1	68	0.00	30.168 
10:15	38.3	38.3	38.3	75	31.1	1	3	68	0.00	30.165 
10:20	38.9	38.9	38.9	73	31.0	1	3	68	0.00	30.165 
10:25	39.5	39.5	39.5	72	31.2	1	3	112	0.00	30.165 
10:30	39.9	39.9	39.9	70	30.9	1	5	90	0.00	30.147 
10:35	40.3	40.3	40.3	69	31.0	1	4	90	0.00	30.147 
10:40	40.8	40.8	40.8	69	31.4	0	3	90	0.00	30.147 
10:45	41.1	41.1	41.1	68	31.4	0	3	90	0.00	30.164 
10:50	41.6	41.6	41.6	66	31.1	0	1	90	0.00	30.164 
10:55	42.1	42.1	42.1	65	31.2	0	2	90	0.00	30.164 
11:00	42.5	42.5	42.5	62	30.4	1	4	90	0.00	30.162 
11:05	42.8	42.8	42.8	62	30.7	0	2	270	0.00	30.162 
11:10	43.1	43.1	43.1	61	30.6	0	1	270	0.00	30.162 
11:15	43.2	43.2	43.2	61	30.7	0	1	270	0.00	30.160 
11:20	43.5	43.5	43.5	60	30.5	0	2	270	0.00	30.160 
11:25	43.6	43.6	43.6	59	30.2	0	3	270	0.00	30.160 
11:30	43.9	43.9	43.9	59	30.5	0	2	270	0.00	30.145 
11:35	44.3	44.3	44.3	59	30.9	0	1	270	0.00	30.145 
11:40	44.6	44.6	44.6	58	30.7	0	1	270	0.00	30.145 
11:45	44.9	44.9	44.9	58	31.0	0	3	270	0.00	30.144 
11:50	45.5	45.5	45.5	59	32.0	0	2	270	0.00	30.144 
11:55	45.8	45.8	45.8	56	31.0	0	2	270	0.00	30.144 
12:00	46.2	46.2	46.2	56	31.4	0	2	270	0.00	30.139 
12:05	46.8	46.8	46.8	56	31.9	0	1	270	0.00	30.139 
12:10	47.1	47.1	47.1	54	31.3	1	4	248	0.00	30.139 
12:15	47.3	47.3	47.3	52	30.6	1	4	248	0.00	30.129 
12:20	47.6	47.6	47.6	54	31.8	0	2	225	0.00	30.129 
12:25	47.9	47.9	47.9	52	31.1	0	2	225	0.00	30.129 
12:30	47.9	47.9	47.9	52	31.1	1	3	225	0.00	30.117 
12:35	48.0	48.0	48.0	54	32.2	0	1	225	0.00	30.117 
12:40	48.0	48.0	48.0	53	31.7	0	2	180	0.00	30.117 
12:45	48.2	48.2	48.2	51	30.9	1	3	225	0.00	30.113 
12:50	48.5	48.5	48.5	53	32.2	0	2	225	0.00	30.113 
12:55	49.1	49.1	49.1	51	31.8	0	1	225	0.00	30.113 
13:00	49.6	49.6	49.6	51	32.2	1	3	225	0.00	30.108 
13:05	49.6	49.6	49.6	51	32.2	0	3	68	0.00	30.108 
13:10	49.6	49.6	49.6	50	31.7	1	3	248	0.00	30.108 
13:15	49.8	49.8	49.8	50	31.9	1	3	248	0.00	30.112 
13:20	50.2	50.2	50.2	50	32.3	0	1	248	0.00	30.112 
13:25	50.4	50.4	50.4	50	32.5	0	2	248	0.00	30.112 
13:30	50.7	50.7	50.7	50	32.7	0	2	248	0.00	30.105 
13:35	51.1	51.1	51.1	49	32.6	0	2	248	0.00	30.105 
13:40	51.6	51.6	51.6	48	32.6	0	2	248	0.00	30.105 
13:45	51.9	51.9	51.9	47	32.3	0	3	248	0.00	30.099 
13:50	52.0	52.0	52.0	46	31.9	1	4	248	0.00	30.099 
13:55	52.2	52.2	52.2	45	31.5	1	4	248	0.00	30.099 
14:00	52.2	52.2	52.2	46	32.1	0	2	248	0.00	30.099 
14:05	52.2	52.2	52.2	47	32.6	1	3	45	0.00	30.099 
14:10	52.2	52.2	52.2	46	32.1	0	2	338	0.00	30.099 
14:15	52.3	52.3	52.3	46	32.1	0	2	338	0.00	30.099 
14:20	52.5	52.5	52.5	46	32.3	1	4	90	0.00	30.099 
14:25	52.5	52.5	52.5	47	32.9	1	4	90	0.00	30.099 
14:30	52.3	52.3	52.3	46	32.1	0	2	90	0.00	30.095 
14:35	52.2	52.2	52.2	48	33.1	0	2	90	0.00	30.095 
14:40	52.2	52.2	52.2	48	33.1	0	3	90	0.00	30.095 
14:45	52.3	52.3	52.3	47	32.7	0	2	90	0.00	30.096 
14:50	52.3	52.3	52.3	47	32.7	0	1	90	0.00	30.096 
14:55	52.6	52.6	52.6	46	32.4	0	2	90	0.00	30.096 
15:00	52.6	52.6	52.6	46	32.4	0	3	90	0.00	30.094 
15:05	52.6	52.6	52.6	45	31.9	1	3	90	0.00	30.094 
15:10	52.6	52.6	52.6	46	32.4	0	1	90	0.00	30.094 
15:15	52.6	52.6	52.6	46	32.4	0	2	90	0.00	30.092 
15:20	52.5	52.5	52.5	48	33.4	0	2	90	0.00	30.092 
15:25	52.3	52.3	52.3	48	33.2	0	3	90	0.00	30.092 
15:30	52.3	52.3	52.3	48	33.2	0	2	90	0.00	30.097 
15:35	52.3	52.3	52.3	48	33.2	0	2	90	0.00	30.097 
15:40	52.3	52.3	52.3	49	33.7	0	2	90	0.00	30.097 
15:45	52.3	52.3	52.3	49	33.7	0	1	90	0.00	30.102 
15:50	52.2	52.2	52.2	49	33.6	0	2	90	0.00	30.102 
15:55	52.2	52.2	52.2	50	34.1	0	2	90	0.00	30.102 
16:00	52.2	52.2	52.2	49	33.6	0	2	90	0.00	30.100 
16:05	52.0	52.0	52.0	50	33.9	0	3	90	0.00	30.100 
16:10	52.0	52.0	52.0	50	33.9	0	2	90	0.00	30.100 
16:15	52.0	52.0	52.0	50	33.9	0	3	90	0.00	30.104 
16:20	52.0	52.0	52.0	50	33.9	0	2	90	0.00	30.104 
16:25	51.9	51.9	51.9	50	33.9	0	0	---	0.00	30.104 
16:30	51.9	51.9	51.9	50	33.9	0	2	90	0.00	30.108 
16:35	51.9	51.9	51.9	50	33.9	0	0	---	0.00	30.108 
16:40	51.7	51.7	51.7	51	34.2	0	1	90	0.00	30.108 
16:45	51.6	51.6	51.6	51	34.1	0	0	---	0.00	30.112 
16:50	51.4	51.4	51.4	51	33.9	0	1	90	0.00	30.112 
16:55	51.3	51.3	51.3	50	33.3	0	1	90	0.00	30.112 
17:00	51.0	51.0	51.0	51	33.5	0	0	---	0.00	30.116 
17:05	50.7	50.7	50.7	51	33.2	0	0	---	0.00	30.116 
17:10	50.2	50.2	50.2	53	33.7	0	0	---	0.00	30.116 
17:15	49.8	49.8	49.8	53	33.4	0	0	---	0.00	30.125 
17:20	49.2	49.2	49.2	54	33.3	0	0	---	0.00	30.125 
17:25	48.8	48.8	48.8	55	33.4	0	0	---	0.00	30.125 
17:30	48.3	48.3	48.3	55	32.9	0	0	---	0.00	30.134 
17:35	47.9	47.9	47.9	57	33.4	0	0	---	0.00	30.134 
17:40	47.6	47.6	47.6	58	33.6	0	0	---	0.00	30.134 
17:45	47.3	47.3	47.3	58	33.3	0	0	---	0.00	30.138 
17:50	47.1	47.1	47.1	59	33.5	0	0	---	0.00	30.138 
17:55	47.0	47.0	47.0	59	33.4	0	0	---	0.00	30.138 
18:00	46.8	46.8	46.8	61	34.1	0	0	---	0.00	30.149 
18:05	46.8	46.8	46.8	61	34.1	0	0	---	0.00	30.149 
18:10	46.7	46.7	46.7	61	34.0	0	0	---	0.00	30.149 
18:15	46.5	46.5	46.5	62	34.2	0	0	---	0.00	30.149 
18:20	46.2	46.2	46.2	62	33.9	0	0	---	0.00	30.149 
18:25	46.0	46.0	46.0	63	34.1	0	0	---	0.00	30.149 
18:30	45.5	45.5	45.5	63	33.6	0	0	---	0.00	30.152 
18:35	45.1	45.1	45.1	63	33.3	0	0	---	0.00	30.152 
18:40	44.8	44.8	44.8	64	33.4	0	0	---	0.00	30.152 
18:45	44.6	44.6	44.6	64	33.2	0	0	---	0.00	30.171 
18:50	44.5	44.5	44.5	65	33.5	0	0	---	0.00	30.171 
18:55	44.3	44.3	44.3	65	33.3	0	0	---	0.00	30.171 
19:00	44.2	44.2	44.2	67	33.9	0	1	90	0.00	30.169 
19:05	44.2	44.2	44.2	67	33.9	0	0	---	0.00	30.169 
19:10	44.1	44.1	44.1	66	33.5	0	0	---	0.00	30.169 
19:15	43.8	43.8	43.8	66	33.2	0	0	---	0.00	30.171 
19:20	43.3	43.3	43.3	67	33.1	0	0	---	0.00	30.171 
19:25	42.9	42.9	42.9	68	33.1	0	0	---	0.00	30.171 
19:30	42.5	42.5	42.5	68	32.7	0	0	---	0.00	30.180 
19:35	42.2	42.2	42.2	69	32.8	0	0	---	0.00	30.180 
19:40	41.9	41.9	41.9	70	32.8	0	0	---	0.00	30.180 
19:45	41.6	41.6	41.6	71	32.9	0	0	---	0.00	30.188 
19:50	41.3	41.3	41.3	72	33.0	0	0	---	0.00	30.188 
19:55	41.3	41.3	41.3	72	33.0	0	0	---	0.00	30.188 
20:00	41.3	41.3	41.3	72	33.0	0	0	---	0.00	30.192 
20:05	41.3	41.3	41.3	72	33.0	0	0	---	0.00	30.192 
20:10	41.5	41.5	41.5	72	33.2	0	0	---	0.00	30.192 
20:15	41.6	41.6	41.6	71	32.9	0	0	---	0.00	30.189 
20:20	41.9	41.9	41.9	71	33.2	0	0	---	0.00	30.189 
20:25	42.1	42.1	42.1	71	33.4	0	0	---	0.00	30.189 
20:30	42.2	42.2	42.2	70	33.1	0	0	---	0.00	30.192 
20:35	42.5	42.5	42.5	70	33.4	0	1	90	0.00	30.192 
20:40	42.8	42.8	42.8	69	33.3	0	1	90	0.00	30.192 
20:45	42.9	42.9	42.9	68	33.1	0	2	90	0.00	30.189 
20:50	43.1	43.1	43.1	68	33.3	0	3	90	0.00	30.189 
20:55	43.2	43.2	43.2	67	33.0	0	1	90	0.00	30.189 
21:00	43.3	43.3	43.3	66	32.7	0	2	90	0.00	30.185 
21:05	43.3	43.3	43.3	66	32.7	0	2	90	0.00	30.185 
21:10	43.3	43.3	43.3	66	32.7	0	2	90	0.00	30.185 
21:15	43.2	43.2	43.2	66	32.6	0	2	90	0.00	30.182 
21:20	43.1	43.1	43.1	66	32.5	0	1	90	0.00	30.182 
21:25	42.8	42.8	42.8	66	32.2	0	1	90	0.00	30.182 
21:30	42.5	42.5	42.5	67	32.3	0	1	90	0.00	30.182 
21:35	42.2	42.2	42.2	68	32.4	0	1	90	0.00	30.182 
21:40	41.9	41.9	41.9	68	32.1	0	0	---	0.00	30.182 
21:45	41.6	41.6	41.6	69	32.2	0	1	90	0.00	30.183 
21:50	41.3	41.3	41.3	69	31.9	0	0	---	0.00	30.183 
21:55	41.1	41.1	41.1	69	31.7	0	2	90	0.00	30.183 
22:00	40.8	40.8	40.8	70	31.8	0	1	90	0.00	30.182 
22:05	40.6	40.6	40.6	70	31.6	0	0	---	0.00	30.182 
22:10	40.2	40.2	40.2	70	31.2	0	0	---	0.00	30.182 
22:15	39.9	39.9	39.9	71	31.3	0	0	---	0.00	30.178 
22:20	39.8	39.8	39.8	72	31.5	0	0	---	0.00	30.178 
22:25	39.5	39.5	39.5	72	31.2	0	0	---	0.00	30.178 
22:30	39.2	39.2	39.2	73	31.3	0	0	---	0.00	30.179 
22:35	38.9	38.9	38.9	74	31.3	0	2	90	0.00	30.179 
22:40	38.8	38.8	38.8	74	31.2	0	1	90	0.00	30.179 
22:45	38.8	38.8	38.8	75	31.6	0	1	90	0.00	30.178 
22:50	38.8	38.8	38.8	75	31.6	0	1	90	0.00	30.178 
22:55	38.6	38.6	38.6	76	31.7	0	1	90	0.00	30.178 
23:00	38.6	38.6	38.6	76	31.7	1	3	90	0.00	30.177 
23:05	38.8	38.8	38.8	76	31.9	1	3	90	0.00	30.177 
23:10	38.6	38.6	38.6	76	31.7	0	2	90	0.00	30.177 
23:15	38.5	38.5	38.5	77	31.9	0	1	90	0.00	30.177 
23:20	38.2	38.2	38.2	77	31.6	0	1	90	0.00	30.177 
23:25	37.9	37.9	37.9	78	31.7	0	1	90	0.00	30.177 
23:30	37.8	37.8	37.8	78	31.6	0	0	---	0.00	30.183 
23:35	37.3	37.3	37.3	78	31.1	0	0	---	0.00	30.183 
23:40	37.2	37.2	37.2	79	31.3	0	2	90	0.00	30.183 
23:45	37.0	37.0	37.0	80	31.4	0	1	90	0.00	30.191 
23:50	37.0	37.0	37.0	80	31.4	1	4	90	0.00	30.191 
23:55	37.2	37.2	37.2	80	31.6	2	5	90	0.00	30.191 

CoCoRaHS
IN-AL-39
A2 Web Hosting
Creative Commons License
GoDaddy
search engine by freefind advanced

loaded 2018-11-20 06:13:34 • last modified 2010-11-18 10:43:29
Privacy PolicyDisclaimer
• wx.awcolley.com is powered by PmWiki v.2002016 •
• all content (unless otherwise noted) © 2018 A W Colley